createdAt,value
2016-11-14T00:00:57.134Z,0
2016-11-14T00:01:57.237Z,0
2016-11-14T00:02:57.258Z,0
2016-11-14T00:03:57.666Z,0
2016-11-14T00:04:57.377Z,0
2016-11-14T00:05:57.421Z,0
2016-11-14T00:06:57.464Z,0
2016-11-14T00:07:57.525Z,0
2016-11-14T00:08:57.653Z,0
2016-11-14T00:09:57.644Z,0
2016-11-14T00:10:57.654Z,0
2016-11-14T00:11:57.693Z,0
2016-11-14T00:12:57.789Z,0
2016-11-14T00:13:57.901Z,0
2016-11-14T00:14:57.841Z,0
2016-11-14T00:15:57.908Z,0
2016-11-14T00:16:57.988Z,0
2016-11-14T00:17:58.043Z,0
2016-11-14T00:18:58.105Z,0
2016-11-14T00:19:58.200Z,0
2016-11-14T00:20:58.172Z,0
2016-11-14T00:21:58.221Z,0
2016-11-14T00:22:58.251Z,0
2016-11-14T00:23:58.373Z,0
2016-11-14T00:24:58.423Z,0
2016-11-14T00:25:58.438Z,0
2016-11-14T00:26:58.433Z,0
2016-11-14T00:27:58.531Z,0
2016-11-14T00:28:58.579Z,0
2016-11-14T00:29:58.688Z,0
2016-11-14T00:30:58.691Z,0
2016-11-14T00:31:58.763Z,0
2016-11-14T00:32:58.783Z,0
2016-11-14T00:33:59.373Z,0
2016-11-14T00:34:59.007Z,0
2016-11-14T00:35:58.919Z,0
2016-11-14T00:36:58.994Z,0
2016-11-14T00:37:59.014Z,0
2016-11-14T00:38:59.057Z,0
2016-11-14T00:39:59.186Z,0
2016-11-14T00:40:59.186Z,0
2016-11-14T00:41:59.738Z,0
2016-11-14T00:42:59.804Z,0
2016-11-14T00:43:59.353Z,0
2016-11-14T00:44:59.415Z,0
2016-11-14T00:45:59.504Z,0
2016-11-14T00:46:59.463Z,0
2016-11-14T00:47:59.494Z,0
2016-11-14T00:48:59.539Z,0
2016-11-14T00:49:59.608Z,0
2016-11-14T00:50:59.734Z,0
2016-11-14T00:51:59.732Z,0
2016-11-14T00:52:59.714Z,0
2016-11-14T00:53:59.780Z,0
2016-11-14T00:54:59.862Z,0
2016-11-14T00:56:00.607Z,0
2016-11-14T00:56:59.971Z,0
2016-11-14T00:57:59.983Z,0
2016-11-14T00:58:59.992Z,0
2016-11-14T01:00:00.111Z,0
2016-11-14T01:01:00.289Z,0
2016-11-14T01:02:00.207Z,0
2016-11-14T01:03:00.296Z,0
2016-11-14T01:04:00.289Z,0
2016-11-14T01:05:00.409Z,0
2016-11-14T01:06:00.467Z,0
2016-11-14T01:07:00.452Z,0
2016-11-14T01:08:00.508Z,0
2016-11-14T01:09:00.561Z,0
2016-11-14T01:10:00.646Z,0
2016-11-14T01:11:00.776Z,0
2016-11-14T01:12:00.755Z,0
2016-11-14T01:13:00.754Z,0
2016-11-14T01:14:00.839Z,0
2016-11-14T01:15:00.952Z,0
2016-11-14T01:16:00.942Z,0
2016-11-14T01:17:01.092Z,0
2016-11-14T01:18:01.031Z,0
2016-11-14T01:19:01.045Z,0
2016-11-14T01:20:01.087Z,0
2016-11-14T01:21:01.123Z,0
2016-11-14T01:22:01.328Z,0
2016-11-14T01:23:01.232Z,0
2016-11-14T01:24:01.343Z,0
2016-11-14T01:25:01.349Z,0
2016-11-14T01:26:01.402Z,0
2016-11-14T01:27:01.541Z,0
2016-11-14T01:28:02.072Z,0
2016-11-14T01:29:01.546Z,0
2016-11-14T01:30:01.648Z,0
2016-11-14T01:31:01.669Z,0
2016-11-14T01:32:01.816Z,0
2016-11-14T01:33:01.729Z,0
2016-11-14T01:34:01.802Z,0
2016-11-14T01:35:01.896Z,0
2016-11-14T01:36:01.902Z,0
2016-11-14T01:37:02.025Z,0
2016-11-14T01:38:01.987Z,0
2016-11-14T01:39:01.999Z,0
2016-11-14T01:40:02.095Z,0
2016-11-14T01:41:02.129Z,0
2016-11-14T01:42:02.313Z,0
2016-11-14T01:43:02.230Z,0
2016-11-14T01:44:02.329Z,0
2016-11-14T01:45:02.360Z,0
2016-11-14T01:46:02.445Z,0
2016-11-14T01:47:02.596Z,0
2016-11-14T01:48:02.477Z,0
2016-11-14T01:49:02.514Z,0
2016-11-14T01:50:02.576Z,0
2016-11-14T01:51:02.629Z,0
2016-11-14T01:52:02.804Z,0
2016-11-14T01:53:02.735Z,0
2016-11-14T01:54:02.881Z,0
2016-11-14T01:55:02.851Z,0
2016-11-14T01:56:02.903Z,0
2016-11-14T01:57:02.919Z,0
2016-11-14T01:58:03.141Z,0
2016-11-14T01:59:03.062Z,0
2016-11-14T02:00:03.113Z,0
2016-11-14T02:01:03.174Z,0
2016-11-14T02:02:03.195Z,0
2016-11-14T02:03:03.890Z,0
2016-11-14T02:04:03.302Z,0
2016-11-14T02:05:03.396Z,0
2016-11-14T02:06:04.102Z,0
2016-11-14T02:07:03.481Z,0
2016-11-14T02:08:04.100Z,0
2016-11-14T02:09:03.553Z,0
2016-11-14T02:10:03.620Z,0
2016-11-14T02:11:03.650Z,0
2016-11-14T02:12:03.726Z,0
2016-11-14T02:13:04.428Z,0
2016-11-14T02:14:04.325Z,0
2016-11-14T02:15:03.853Z,0
2016-11-14T02:16:04.431Z,0
2016-11-14T02:17:03.964Z,0
2016-11-14T02:18:04.109Z,0
2016-11-14T02:19:04.084Z,0
2016-11-14T02:20:04.119Z,0
2016-11-14T02:21:04.214Z,0
2016-11-14T02:22:04.221Z,0
2016-11-14T02:23:04.374Z,0
2016-11-14T02:24:04.296Z,0
2016-11-14T02:25:04.421Z,0
2016-11-14T02:26:04.415Z,0
2016-11-14T02:27:04.506Z,0
2016-11-14T02:28:04.537Z,0
2016-11-14T02:29:04.700Z,0
2016-11-14T02:30:04.615Z,0
2016-11-14T02:31:04.624Z,0
2016-11-14T02:32:04.728Z,0
2016-11-14T02:33:04.760Z,0
2016-11-14T02:34:04.933Z,0
2016-11-14T02:35:04.878Z,0
2016-11-14T02:36:04.914Z,0
2016-11-14T02:37:04.960Z,0
2016-11-14T02:38:05.084Z,0
2016-11-14T02:39:05.180Z,0
2016-11-14T02:40:05.116Z,0
2016-11-14T02:41:05.716Z,0
2016-11-14T02:42:05.223Z,0
2016-11-14T02:43:05.357Z,0
2016-11-14T02:44:05.424Z,0
2016-11-14T02:45:05.363Z,0
2016-11-14T02:46:05.407Z,0
2016-11-14T02:47:05.455Z,0
2016-11-14T02:48:05.550Z,0
2016-11-14T02:49:05.667Z,0
2016-11-14T02:50:05.607Z,0
2016-11-14T02:51:05.649Z,0
2016-11-14T02:52:05.733Z,0
2016-11-14T02:53:06.372Z,0
2016-11-14T02:54:05.859Z,0
2016-11-14T02:55:05.857Z,0
2016-11-14T02:56:05.904Z,0
2016-11-14T02:57:05.992Z,0
2016-11-14T02:58:06.056Z,0
2016-11-14T02:59:06.662Z,0
2016-11-14T03:00:06.153Z,0
2016-11-14T03:01:06.129Z,0
2016-11-14T03:02:06.282Z,0
2016-11-14T03:03:06.231Z,0
2016-11-14T03:04:06.816Z,0
2016-11-14T03:05:06.481Z,0
2016-11-14T03:06:06.383Z,0
2016-11-14T03:07:06.488Z,0
2016-11-14T03:08:06.475Z,0
2016-11-14T03:09:06.550Z,0
2016-11-14T03:10:06.775Z,0
2016-11-14T03:11:06.644Z,0
2016-11-14T03:12:06.694Z,0
2016-11-14T03:13:06.768Z,0
2016-11-14T03:14:06.784Z,0
2016-11-14T03:15:06.991Z,0
2016-11-14T03:16:06.920Z,0
2016-11-14T03:17:06.940Z,0
2016-11-14T03:18:07.043Z,0
2016-11-14T03:19:07.065Z,0
2016-11-14T03:20:07.718Z,0
2016-11-14T03:21:07.148Z,0
2016-11-14T03:22:07.187Z,0
2016-11-14T03:23:07.224Z,0
2016-11-14T03:24:07.325Z,0
2016-11-14T03:25:07.441Z,0
2016-11-14T03:26:07.418Z,0
2016-11-14T03:27:07.404Z,0
2016-11-14T03:28:07.499Z,0
2016-11-14T03:29:07.587Z,0
2016-11-14T03:30:07.764Z,0
2016-11-14T03:31:07.686Z,0
2016-11-14T03:32:07.649Z,0
2016-11-14T03:33:07.842Z,0
2016-11-14T03:34:07.794Z,0
2016-11-14T03:35:07.966Z,0
2016-11-14T03:36:07.911Z,0
2016-11-14T03:37:07.931Z,0
2016-11-14T03:38:08.010Z,0
2016-11-14T03:39:08.068Z,0
2016-11-14T03:40:08.210Z,0
2016-11-14T03:41:08.108Z,0
2016-11-14T03:42:08.218Z,0
2016-11-14T03:43:08.224Z,0
2016-11-14T03:44:08.304Z,0
2016-11-14T03:45:08.395Z,0
2016-11-14T03:46:08.550Z,0
2016-11-14T03:47:08.471Z,0
2016-11-14T03:48:08.461Z,0
2016-11-14T03:49:08.595Z,0
2016-11-14T03:50:08.599Z,0
2016-11-14T03:51:08.772Z,0
2016-11-14T03:52:08.656Z,0
2016-11-14T03:53:08.855Z,0
2016-11-14T03:54:08.856Z,0
2016-11-14T03:55:08.847Z,0
2016-11-14T03:56:09.051Z,0
2016-11-14T03:57:08.970Z,0
2016-11-14T03:58:09.004Z,0
2016-11-14T03:59:09.061Z,0
2016-11-14T04:00:09.091Z,0
2016-11-14T04:01:09.248Z,0
2016-11-14T04:02:09.209Z,0
2016-11-14T04:03:09.244Z,0
2016-11-14T04:04:09.347Z,0
2016-11-14T04:05:09.397Z,0
2016-11-14T04:06:09.549Z,0
2016-11-14T04:07:09.469Z,0
2016-11-14T04:08:09.502Z,0
2016-11-14T04:09:09.612Z,0
2016-11-14T04:10:09.615Z,0
2016-11-14T04:11:09.804Z,0
2016-11-14T04:12:09.718Z,0
2016-11-14T04:13:09.739Z,0
2016-11-14T04:14:09.836Z,0
2016-11-14T04:15:10.341Z,0
2016-11-14T04:16:10.007Z,0
2016-11-14T04:17:10.982Z,0
2016-11-14T04:18:10.498Z,0
2016-11-14T04:19:10.059Z,0
2016-11-14T04:20:10.094Z,0
2016-11-14T04:21:10.269Z,0
2016-11-14T04:22:10.227Z,0
2016-11-14T04:23:10.291Z,0
2016-11-14T04:24:10.354Z,0
2016-11-14T04:25:10.350Z,0
2016-11-14T04:26:10.413Z,0
2016-11-14T04:27:10.583Z,0
2016-11-14T04:28:10.561Z,0
2016-11-14T04:29:10.559Z,0
2016-11-14T04:30:10.629Z,0
2016-11-14T04:31:10.682Z,0
2016-11-14T04:32:10.850Z,0
2016-11-14T04:33:10.740Z,0
2016-11-14T04:34:10.822Z,0
2016-11-14T04:35:11.363Z,0
2016-11-14T04:36:10.916Z,0
2016-11-14T04:37:11.084Z,0
2016-11-14T04:38:10.989Z,0
2016-11-14T04:39:11.061Z,0
2016-11-14T04:40:11.058Z,0
2016-11-14T04:41:11.160Z,0
2016-11-14T04:42:11.315Z,0
2016-11-14T04:43:11.239Z,0
2016-11-14T04:44:11.287Z,0
2016-11-14T04:45:11.892Z,0
2016-11-14T04:46:11.412Z,0
2016-11-14T04:47:11.547Z,0
2016-11-14T04:48:11.514Z,0
2016-11-14T04:49:11.593Z,0
2016-11-14T04:50:12.092Z,0
2016-11-14T04:51:11.689Z,0
2016-11-14T04:52:11.834Z,0
2016-11-14T04:53:11.748Z,0
2016-11-14T04:54:11.838Z,0
2016-11-14T04:55:11.858Z,0
2016-11-14T04:56:13.083Z,0
2016-11-14T04:57:12.061Z,0
2016-11-14T04:58:12.010Z,0
2016-11-14T04:59:12.057Z,0
2016-11-14T05:00:12.621Z,0
2016-11-14T05:01:12.156Z,0
2016-11-14T05:02:12.851Z,0
2016-11-14T05:03:12.237Z,0
2016-11-14T05:04:12.323Z,0
2016-11-14T05:05:12.348Z,0
2016-11-14T05:06:12.406Z,0
2016-11-14T05:07:12.987Z,0
2016-11-14T05:08:12.577Z,0
2016-11-14T05:09:12.616Z,0
2016-11-14T05:10:12.611Z,0
2016-11-14T05:11:12.660Z,0
2016-11-14T05:12:13.226Z,0
2016-11-14T05:13:12.877Z,0
2016-11-14T05:14:12.788Z,0
2016-11-14T05:15:12.839Z,0
2016-11-14T05:16:12.953Z,0
2016-11-14T05:17:12.908Z,0
2016-11-14T05:18:13.110Z,0
2016-11-14T05:19:13.110Z,0
2016-11-14T05:20:13.108Z,0
2016-11-14T05:21:13.134Z,0
2016-11-14T05:22:13.247Z,0
2016-11-14T05:23:13.373Z,0
2016-11-14T05:24:13.268Z,0
2016-11-14T05:25:13.341Z,0
2016-11-14T05:26:13.383Z,0
2016-11-14T05:27:13.435Z,0
2016-11-14T05:28:13.586Z,0
2016-11-14T05:29:13.537Z,0
2016-11-14T05:30:13.579Z,0
2016-11-14T05:31:13.650Z,0
2016-11-14T05:32:13.733Z,0
2016-11-14T05:33:13.884Z,0
2016-11-14T05:34:14.373Z,0
2016-11-14T05:35:14.401Z,0
2016-11-14T05:36:13.891Z,0
2016-11-14T05:37:14.485Z,0
2016-11-14T05:38:14.107Z,0
2016-11-14T05:39:14.052Z,0
2016-11-14T05:40:14.090Z,0
2016-11-14T05:41:14.722Z,0
2016-11-14T05:42:14.133Z,0
2016-11-14T05:43:14.392Z,0
2016-11-14T05:44:14.375Z,0
2016-11-14T05:45:14.383Z,0
2016-11-14T05:46:14.408Z,0
2016-11-14T05:47:14.432Z,0
2016-11-14T05:48:14.443Z,0
2016-11-14T05:49:14.667Z,0
2016-11-14T05:50:14.609Z,0
2016-11-14T05:51:14.649Z,0
2016-11-14T05:52:14.721Z,0
2016-11-14T05:53:14.787Z,0
2016-11-14T05:54:15.464Z,0
2016-11-14T05:55:15.407Z,0
2016-11-14T05:56:14.874Z,0
2016-11-14T05:57:15.513Z,0
2016-11-14T05:58:15.042Z,0
2016-11-14T05:59:15.123Z,0
2016-11-14T06:00:15.081Z,0
2016-11-14T06:01:15.150Z,0
2016-11-14T06:02:15.200Z,0
2016-11-14T06:03:15.244Z,0
2016-11-14T06:04:15.365Z,0
2016-11-14T06:05:15.328Z,0
2016-11-14T06:06:15.403Z,0
2016-11-14T06:07:15.424Z,0
2016-11-14T06:08:16.071Z,0
2016-11-14T06:09:15.669Z,0
2016-11-14T06:10:15.578Z,0
2016-11-14T06:11:15.628Z,0
2016-11-14T06:12:15.657Z,0
2016-11-14T06:13:16.256Z,0
2016-11-14T06:14:15.862Z,0
2016-11-14T06:15:16.585Z,0
2016-11-14T06:16:15.886Z,0
2016-11-14T06:17:15.950Z,0
2016-11-14T06:18:16.001Z,0
2016-11-14T06:19:16.049Z,0
2016-11-14T06:20:16.163Z,0
2016-11-14T06:21:16.137Z,0
2016-11-14T06:22:16.204Z,0
2016-11-14T06:23:16.296Z,0
2016-11-14T06:24:16.876Z,0
2016-11-14T06:25:17.542Z,0
2016-11-14T06:26:16.390Z,0
2016-11-14T06:27:16.461Z,0
2016-11-14T06:28:16.464Z,0
2016-11-14T06:29:16.593Z,0
2016-11-14T06:30:16.687Z,0
2016-11-14T06:31:16.636Z,0
2016-11-14T06:32:16.766Z,0
2016-11-14T06:33:16.805Z,0
2016-11-14T06:34:16.819Z,0
2016-11-14T06:35:16.953Z,0
2016-11-14T06:36:16.897Z,0
2016-11-14T06:37:16.915Z,0
2016-11-14T06:38:16.999Z,0
2016-11-14T06:39:17.105Z,0
2016-11-14T06:40:17.210Z,0
2016-11-14T06:41:17.186Z,0
2016-11-14T06:42:17.728Z,0
2016-11-14T06:43:17.262Z,0
2016-11-14T06:44:17.331Z,0
2016-11-14T06:45:17.526Z,0
2016-11-14T06:46:17.419Z,0
2016-11-14T06:47:17.474Z,0
2016-11-14T06:48:17.541Z,0
2016-11-14T06:49:17.531Z,0
2016-11-14T06:50:17.689Z,0
2016-11-14T06:51:17.679Z,0
2016-11-14T06:52:18.288Z,0
2016-11-14T06:53:17.737Z,0
2016-11-14T06:54:17.816Z,0
2016-11-14T06:55:17.845Z,0
2016-11-14T06:56:18.018Z,0
2016-11-14T06:57:17.956Z,0
2016-11-14T06:58:17.981Z,0
2016-11-14T06:59:18.088Z,0
2016-11-14T07:00:18.085Z,0
2016-11-14T07:01:18.268Z,0
2016-11-14T07:02:18.188Z,0
2016-11-14T07:03:18.226Z,0
2016-11-14T07:04:18.291Z,0
2016-11-14T07:05:18.341Z,0
2016-11-14T07:06:19.046Z,0
2016-11-14T07:07:18.398Z,0
2016-11-14T07:08:18.513Z,0
2016-11-14T07:09:18.545Z,0
2016-11-14T07:10:18.614Z,0
2016-11-14T07:11:18.810Z,0
2016-11-14T07:12:18.655Z,0
2016-11-14T07:13:18.736Z,0
2016-11-14T07:14:18.823Z,0
2016-11-14T07:15:18.856Z,0
2016-11-14T07:16:18.971Z,0
2016-11-14T07:17:19.456Z,0
2016-11-14T07:18:18.995Z,0
2016-11-14T07:19:19.094Z,0
2016-11-14T07:20:19.069Z,0
2016-11-14T07:21:19.251Z,0
2016-11-14T07:22:19.195Z,0
2016-11-14T07:23:19.241Z,0
2016-11-14T07:24:19.278Z,0
2016-11-14T07:25:19.344Z,0
2016-11-14T07:26:19.381Z,0
2016-11-14T07:27:19.531Z,0
2016-11-14T07:28:19.573Z,0
2016-11-14T07:29:19.576Z,0
2016-11-14T07:30:19.600Z,0
2016-11-14T07:31:19.657Z,0
2016-11-14T07:32:19.829Z,0
2016-11-14T07:33:19.751Z,0
2016-11-14T07:34:19.838Z,0
2016-11-14T07:35:19.885Z,0
2016-11-14T07:36:19.866Z,0
2016-11-14T07:37:20.044Z,0
2016-11-14T07:38:19.991Z,0
2016-11-14T07:39:20.048Z,0
2016-11-14T07:40:20.119Z,0
2016-11-14T07:41:20.146Z,0
2016-11-14T07:42:20.320Z,0
2016-11-14T07:43:20.185Z,0
2016-11-14T07:44:20.274Z,0
2016-11-14T07:45:20.369Z,0
2016-11-14T07:46:20.372Z,0
2016-11-14T07:47:21.087Z,0
2016-11-14T07:48:20.487Z,0
2016-11-14T07:49:20.500Z,0
2016-11-14T07:50:20.603Z,0
2016-11-14T07:51:20.641Z,0
2016-11-14T07:52:20.642Z,0
2016-11-14T07:53:21.433Z,0
2016-11-14T07:54:20.773Z,0
2016-11-14T07:55:20.832Z,0
2016-11-14T07:56:20.934Z,0
2016-11-14T07:57:21.027Z,0
2016-11-14T07:58:21.135Z,0
2016-11-14T07:59:21.090Z,0
2016-11-14T08:00:21.121Z,0
2016-11-14T08:01:21.171Z,0
2016-11-14T08:02:21.157Z,0
2016-11-14T08:03:21.289Z,0
2016-11-14T08:04:21.300Z,0
2016-11-14T08:05:21.289Z,0
2016-11-14T08:06:21.887Z,0
2016-11-14T08:07:21.449Z,0
2016-11-14T08:08:21.603Z,0
2016-11-14T08:09:21.588Z,0
2016-11-14T08:10:21.585Z,0
2016-11-14T08:11:21.649Z,0
2016-11-14T08:12:21.705Z,0
2016-11-14T08:13:21.807Z,0
2016-11-14T08:14:21.799Z,0
2016-11-14T08:15:21.824Z,0
2016-11-14T08:16:21.882Z,0
2016-11-14T08:17:22.450Z,0
2016-11-14T08:18:22.064Z,0
2016-11-14T08:19:22.060Z,0
2016-11-14T08:20:22.088Z,0
2016-11-14T08:21:22.152Z,0
2016-11-14T08:22:22.207Z,0
2016-11-14T08:23:22.201Z,0
2016-11-14T08:24:22.408Z,0
2016-11-14T08:25:22.287Z,0
2016-11-14T08:26:22.321Z,0
2016-11-14T08:27:22.390Z,0
2016-11-14T08:28:22.541Z,0
2016-11-14T08:29:22.679Z,0
2016-11-14T08:30:22.622Z,0
2016-11-14T08:31:22.615Z,0
2016-11-14T08:32:22.677Z,0
2016-11-14T08:33:22.753Z,0
2016-11-14T08:34:22.893Z,0
2016-11-14T08:35:22.793Z,0
2016-11-14T08:36:22.851Z,0
2016-11-14T08:37:22.919Z,0
2016-11-14T08:38:22.976Z,0
2016-11-14T08:39:23.647Z,0
2016-11-14T08:40:23.027Z,0
2016-11-14T08:41:23.103Z,0
2016-11-14T08:42:23.226Z,0
2016-11-14T08:43:23.239Z,0
2016-11-14T08:44:23.394Z,0
2016-11-14T08:45:23.818Z,0
2016-11-14T08:46:23.402Z,0
2016-11-14T08:47:23.396Z,0
2016-11-14T08:48:23.423Z,0
2016-11-14T08:49:23.648Z,0
2016-11-14T08:50:23.538Z,0
2016-11-14T08:51:23.608Z,0
2016-11-14T08:52:23.654Z,0
2016-11-14T08:53:23.771Z,0
2016-11-14T08:54:23.768Z,0
2016-11-14T08:55:23.898Z,0
2016-11-14T08:56:23.921Z,0
2016-11-14T08:57:23.925Z,5
2016-11-14T08:58:24.471Z,5
2016-11-14T08:59:24.084Z,5
2016-11-14T09:00:24.157Z,5
2016-11-14T09:01:24.138Z,5
2016-11-14T09:02:24.162Z,5
2016-11-14T09:03:24.198Z,5
2016-11-14T09:04:24.283Z,5
2016-11-14T09:05:24.462Z,5
2016-11-14T09:06:24.895Z,5
2016-11-14T09:07:24.453Z,5
2016-11-14T09:08:24.438Z,5
2016-11-14T09:09:24.510Z,10
2016-11-14T09:10:24.650Z,5
2016-11-14T09:11:24.633Z,10
2016-11-14T09:12:24.687Z,10
2016-11-14T09:13:24.720Z,10
2016-11-14T09:14:24.769Z,10
2016-11-14T09:15:25.996Z,10
2016-11-14T09:16:24.839Z,10
2016-11-14T09:17:24.911Z,10
2016-11-14T09:18:24.945Z,10
2016-11-14T09:19:25.014Z,10
2016-11-14T09:20:25.156Z,10
2016-11-14T09:21:25.156Z,10
2016-11-14T09:22:25.164Z,10
2016-11-14T09:23:25.189Z,10
2016-11-14T09:24:25.255Z,10
2016-11-14T09:25:25.941Z,15
2016-11-14T09:26:25.872Z,15
2016-11-14T09:27:25.920Z,15
2016-11-14T09:28:25.514Z,15
2016-11-14T09:29:26.037Z,15
2016-11-14T09:30:25.559Z,15
2016-11-14T09:31:25.783Z,15
2016-11-14T09:32:25.688Z,15
2016-11-14T09:33:25.732Z,15
2016-11-14T09:34:25.764Z,15
2016-11-14T09:35:25.806Z,15
2016-11-14T09:36:25.963Z,15
2016-11-14T09:37:25.880Z,15
2016-11-14T09:38:25.918Z,15
2016-11-14T09:39:25.960Z,20
2016-11-14T09:40:26.068Z,20
2016-11-14T09:41:26.261Z,20
2016-11-14T09:42:26.128Z,20
2016-11-14T09:43:26.212Z,20
2016-11-14T09:44:26.269Z,20
2016-11-14T09:45:26.275Z,20
2016-11-14T09:46:26.451Z,20
2016-11-14T09:47:26.421Z,20
2016-11-14T09:48:26.414Z,20
2016-11-14T09:49:26.510Z,20
2016-11-14T09:50:26.558Z,20
2016-11-14T09:51:26.685Z,25
2016-11-14T09:52:26.676Z,25
2016-11-14T09:53:26.677Z,25
2016-11-14T09:54:26.775Z,25
2016-11-14T09:55:26.798Z,25
2016-11-14T09:56:27.570Z,25
2016-11-14T09:57:26.872Z,25
2016-11-14T09:58:26.939Z,25
2016-11-14T09:59:27.014Z,25
2016-11-14T10:00:27.573Z,25
2016-11-14T10:01:27.184Z,25
2016-11-14T10:02:27.150Z,25
2016-11-14T10:03:27.221Z,25
2016-11-14T10:04:27.250Z,30
2016-11-14T10:05:27.263Z,30
2016-11-14T10:06:27.467Z,30
2016-11-14T10:07:27.373Z,30
2016-11-14T10:08:27.441Z,30
2016-11-14T10:09:27.469Z,30
2016-11-14T10:10:27.514Z,30
2016-11-14T10:11:27.621Z,30
2016-11-14T10:12:27.733Z,30
2016-11-14T10:13:27.699Z,30
2016-11-14T10:14:27.741Z,35
2016-11-14T10:15:27.779Z,35
2016-11-14T10:16:27.812Z,35
2016-11-14T10:17:28.023Z,35
2016-11-14T10:18:27.980Z,35
2016-11-14T10:19:27.968Z,35
2016-11-14T10:20:28.059Z,35
2016-11-14T10:21:28.067Z,35
2016-11-14T10:22:28.223Z,35
2016-11-14T10:23:28.156Z,40
2016-11-14T10:24:28.221Z,35
2016-11-14T10:25:28.293Z,40
2016-11-14T10:26:28.344Z,35
2016-11-14T10:27:28.503Z,40
2016-11-14T10:28:28.484Z,40
2016-11-14T10:29:29.548Z,40
2016-11-14T10:30:28.585Z,40
2016-11-14T10:31:29.098Z,45
2016-11-14T10:32:28.747Z,45
2016-11-14T10:33:28.685Z,50
2016-11-14T10:34:28.763Z,50
2016-11-14T10:35:28.851Z,50
2016-11-14T10:36:29.400Z,55
2016-11-14T10:37:28.959Z,55
2016-11-14T10:38:28.917Z,55
2016-11-14T10:39:29.020Z,55
2016-11-14T10:40:29.502Z,60
2016-11-14T10:41:29.140Z,60
2016-11-14T10:42:29.151Z,65
2016-11-14T10:43:29.282Z,65
2016-11-14T10:44:29.296Z,65
2016-11-14T10:45:29.333Z,65
2016-11-14T10:46:29.368Z,65
2016-11-14T10:47:29.385Z,65
2016-11-14T10:48:29.541Z,65
2016-11-14T10:49:29.992Z,70
2016-11-14T10:50:29.632Z,70
2016-11-14T10:51:30.150Z,70
2016-11-14T10:52:30.154Z,65
2016-11-14T10:53:29.775Z,70
2016-11-14T10:54:30.301Z,70
2016-11-14T10:55:29.862Z,65
2016-11-14T10:56:29.865Z,70
2016-11-14T10:57:29.839Z,65
2016-11-14T10:58:30.547Z,65
2016-11-14T10:59:30.005Z,65
2016-11-14T11:00:30.025Z,60
2016-11-14T11:01:30.640Z,60
2016-11-14T11:02:30.689Z,55
2016-11-14T11:03:30.251Z,55
2016-11-14T11:04:30.713Z,50
2016-11-14T11:05:30.230Z,50
2016-11-14T11:06:30.841Z,50
2016-11-14T11:07:30.383Z,50
2016-11-14T11:08:30.696Z,45
2016-11-14T11:09:30.443Z,45
2016-11-14T11:10:30.525Z,45
2016-11-14T11:11:30.651Z,45
2016-11-14T11:12:30.601Z,45
2016-11-14T11:13:31.316Z,45
2016-11-14T11:14:31.264Z,45
2016-11-14T11:15:30.738Z,45
2016-11-14T11:16:30.818Z,45
2016-11-14T11:17:31.960Z,45
2016-11-14T11:18:30.917Z,45
2016-11-14T11:19:31.664Z,45
2016-11-14T11:20:31.003Z,45
2016-11-14T11:21:31.052Z,45
2016-11-14T11:22:31.096Z,45
2016-11-14T11:23:31.221Z,45
2016-11-14T11:24:31.359Z,45
2016-11-14T11:25:31.317Z,45
2016-11-14T11:26:31.338Z,40
2016-11-14T11:27:31.408Z,40
2016-11-14T11:28:31.970Z,40
2016-11-14T11:29:31.616Z,40
2016-11-14T11:30:32.081Z,45
2016-11-14T11:31:31.607Z,45
2016-11-14T11:32:31.628Z,45
2016-11-14T11:33:31.750Z,50
2016-11-14T11:34:31.888Z,50
2016-11-14T11:35:32.339Z,50
2016-11-14T11:36:31.823Z,50
2016-11-14T11:37:31.849Z,50
2016-11-14T11:38:31.926Z,55
2016-11-14T11:39:32.038Z,55
2016-11-14T11:40:32.557Z,55
2016-11-14T11:41:32.567Z,55
2016-11-14T11:42:32.145Z,60
2016-11-14T11:43:32.211Z,60
2016-11-14T11:44:32.812Z,60
2016-11-14T11:45:32.754Z,60
2016-11-14T11:46:32.327Z,60
2016-11-14T11:47:32.513Z,60
2016-11-14T11:48:32.416Z,65
2016-11-14T11:49:33.018Z,65
2016-11-14T11:50:32.655Z,65
2016-11-14T11:51:33.158Z,65
2016-11-14T11:52:32.592Z,70
2016-11-14T11:53:32.724Z,70
2016-11-14T11:54:32.743Z,70
2016-11-14T11:55:32.930Z,75
2016-11-14T11:56:33.402Z,75
2016-11-14T11:57:33.911Z,75
2016-11-14T11:58:32.913Z,75
2016-11-14T11:59:32.985Z,75
2016-11-14T12:00:33.143Z,75
2016-11-14T12:01:33.608Z,75
2016-11-14T12:02:33.139Z,75
2016-11-14T12:03:33.200Z,75
2016-11-14T12:04:33.202Z,75
2016-11-14T12:05:33.372Z,75
2016-11-14T12:06:33.302Z,75
2016-11-14T12:07:33.406Z,75
2016-11-14T12:08:33.435Z,75
2016-11-14T12:09:33.509Z,75
2016-11-14T12:10:33.617Z,75
2016-11-14T12:11:33.551Z,75
2016-11-14T12:12:33.633Z,75
2016-11-14T12:13:33.702Z,75
2016-11-14T12:14:33.769Z,75
2016-11-14T12:15:34.426Z,75
2016-11-14T12:16:33.851Z,75
2016-11-14T12:17:34.421Z,75
2016-11-14T12:18:34.446Z,75
2016-11-14T12:19:33.972Z,75
2016-11-14T12:20:34.147Z,75
2016-11-14T12:21:34.069Z,75
2016-11-14T12:22:35.245Z,75
2016-11-14T12:23:34.189Z,75
2016-11-14T12:24:34.228Z,75
2016-11-14T12:25:34.265Z,75
2016-11-14T12:26:34.469Z,75
2016-11-14T12:27:34.393Z,75
2016-11-14T12:28:34.437Z,75
2016-11-14T12:29:34.995Z,75
2016-11-14T12:30:35.374Z,75
2016-11-14T12:31:34.670Z,70
2016-11-14T12:32:34.639Z,70
2016-11-14T12:33:34.677Z,70
2016-11-14T12:34:35.264Z,70
2016-11-14T12:35:34.799Z,65
2016-11-14T12:36:34.914Z,65
2016-11-14T12:37:34.904Z,70
2016-11-14T12:38:34.904Z,70
2016-11-14T12:39:35.541Z,70
2016-11-14T12:40:35.711Z,70
2016-11-14T12:41:35.725Z,70
2016-11-14T12:42:35.102Z,70
2016-11-14T12:43:35.143Z,70
2016-11-14T12:44:35.224Z,70
2016-11-14T12:45:35.854Z,70
2016-11-14T12:46:35.432Z,70
2016-11-14T12:47:35.889Z,70
2016-11-14T12:48:35.454Z,70
2016-11-14T12:49:35.991Z,70
2016-11-14T12:50:36.084Z,70
2016-11-14T12:51:35.576Z,75
2016-11-14T12:52:36.304Z,70
2016-11-14T12:53:35.707Z,70
2016-11-14T12:54:35.717Z,75
2016-11-14T12:55:35.766Z,75
2016-11-14T12:56:36.348Z,75
2016-11-14T12:57:35.977Z,75
2016-11-14T12:58:35.950Z,75
2016-11-14T12:59:35.976Z,80
2016-11-14T13:00:36.068Z,90
2016-11-14T13:01:36.603Z,95
2016-11-14T13:02:36.229Z,95
2016-11-14T13:03:36.202Z,95
2016-11-14T13:04:36.734Z,95
2016-11-14T13:05:36.848Z,90
2016-11-14T13:06:36.325Z,80
2016-11-14T13:07:36.524Z,75
2016-11-14T13:08:36.955Z,65
2016-11-14T13:09:36.474Z,65
2016-11-14T13:10:36.535Z,65
2016-11-14T13:11:36.577Z,65
2016-11-14T13:12:36.776Z,65
2016-11-14T13:13:36.688Z,60
2016-11-14T13:14:36.738Z,60
2016-11-14T13:15:37.328Z,55
2016-11-14T13:16:36.828Z,55
2016-11-14T13:17:37.491Z,50
2016-11-14T13:18:36.945Z,45
2016-11-14T13:19:37.014Z,45
2016-11-14T13:20:37.011Z,45
2016-11-14T13:21:37.597Z,45
2016-11-14T13:22:37.842Z,35
2016-11-14T13:23:37.690Z,35
2016-11-14T13:24:37.244Z,30
2016-11-14T13:25:37.273Z,30
2016-11-14T13:26:37.865Z,25
2016-11-14T13:27:37.401Z,25
2016-11-14T13:28:38.051Z,25
2016-11-14T13:29:37.989Z,20
2016-11-14T13:30:37.531Z,20
2016-11-14T13:31:37.612Z,20
2016-11-14T13:32:37.621Z,25
2016-11-14T13:33:37.796Z,25
2016-11-14T13:34:38.228Z,25
2016-11-14T13:35:37.768Z,35
2016-11-14T13:36:38.332Z,45
2016-11-14T13:37:38.422Z,60
2016-11-14T13:38:38.047Z,75
2016-11-14T13:39:37.986Z,80
2016-11-14T13:40:38.594Z,85
2016-11-14T13:41:38.127Z,90
2016-11-14T13:42:38.675Z,85
2016-11-14T13:43:38.352Z,80
2016-11-14T13:44:38.290Z,70
2016-11-14T13:45:39.167Z,60
2016-11-14T13:46:38.313Z,55
2016-11-14T13:47:38.422Z,55
2016-11-14T13:48:38.571Z,50
2016-11-14T13:49:38.534Z,50
2016-11-14T13:50:38.535Z,50
2016-11-14T13:51:39.135Z,50
2016-11-14T13:52:38.628Z,50
2016-11-14T13:53:39.356Z,50
2016-11-14T13:54:39.781Z,50
2016-11-14T13:55:39.320Z,45
2016-11-14T13:56:38.885Z,45
2016-11-14T13:57:38.847Z,40
2016-11-14T13:58:39.012Z,35
2016-11-14T13:59:39.643Z,35
2016-11-14T14:00:39.058Z,35
2016-11-14T14:01:39.100Z,35
2016-11-14T14:02:39.150Z,35
2016-11-14T14:03:39.171Z,35
2016-11-14T14:04:39.967Z,35
2016-11-14T14:05:39.282Z,35
2016-11-14T14:06:40.691Z,30
2016-11-14T14:07:39.934Z,30
2016-11-14T14:08:39.998Z,35
2016-11-14T14:09:40.103Z,35
2016-11-14T14:10:39.575Z,35
2016-11-14T14:11:39.576Z,35
2016-11-14T14:12:39.650Z,35
2016-11-14T14:13:39.691Z,35
2016-11-14T14:14:39.887Z,35
2016-11-14T14:15:40.344Z,35
2016-11-14T14:16:40.349Z,35
2016-11-14T14:17:39.881Z,35
2016-11-14T14:18:39.955Z,35
2016-11-14T14:19:40.140Z,40
2016-11-14T14:20:40.083Z,45
2016-11-14T14:21:40.664Z,45
2016-11-14T14:22:40.190Z,55
2016-11-14T14:23:40.215Z,60
2016-11-14T14:24:40.254Z,60
2016-11-14T14:25:40.470Z,60
2016-11-14T14:26:40.928Z,60
2016-11-14T14:27:40.430Z,60
2016-11-14T14:28:40.504Z,60
2016-11-14T14:29:41.054Z,55
2016-11-14T14:30:40.701Z,55
2016-11-14T14:31:40.653Z,50
2016-11-14T14:32:40.692Z,45
2016-11-14T14:33:40.732Z,45
2016-11-14T14:34:40.772Z,40
2016-11-14T14:35:40.926Z,35
2016-11-14T14:36:40.885Z,35